PWSweather.com
Personal Weather Stations
Station Observations
ISARDEGN48
BittiIT 08021

BittiIT 08021

Lat: 40.4805, Lon: 9.3887

Elevation: 1804

Station Type: La Crosse WS2355

http://meteobitti.altervista.org

High Low Average
Temperature 52.5°F11.4°C 47.5°F8.6°C 50.6°F10.3°C
Dew Point 48.5°F9.2°C 42.7°F5.9°C 46.0°F7.8°C
Winds 15.9 mph 25.6 kmh Calm Calm 4.0 mph ESE6.4 kmh ESE
Wind Gusts 28.0 mph45.1 kmh 1.3 mph2.1 kmh 11.0 mph17.7 kmh
Humidity 89% 75% 84%
Pressure 29.45 in997.3 mb 29.19 in988.5 mb -
Precipitation 0.35 in8.9 mm - -
Hour Temp Dew Point Humidity Winds Wind Gusts Pressure Precip Precip Rate Daily Precip Total
12:00 AM 48.0°F8.9°C 44.7°F7.1°C 88% Calm Calm 1.6 mph2.6 kmh 29.45 in997.3 mb 0.00 in0.0 mm 0.00 in0.0 mm 0.00 in0.0 mm
12:05 AM 47.8°F8.8°C 44.5°F6.9°C 88% 2.5 mph SW4.0 kmh SW 2.7 mph4.3 kmh 29.45 in997.3 mb 0.00 in0.0 mm 0.00 in0.0 mm 0.00 in0.0 mm
12:10 AM 47.8°F8.8°C 44.5°F6.9°C 88% 1.6 mph SW2.6 kmh SW 2.7 mph4.3 kmh 29.45 in997.3 mb 0.00 in0.0 mm 0.00 in0.0 mm 0.00 in0.0 mm
12:15 AM 47.8°F8.8°C 44.5°F6.9°C 88% Calm Calm 2.5 mph4.0 kmh 29.44 in997.0 mb 0.00 in0.0 mm 0.00 in0.0 mm 0.00 in0.0 mm
12:20 AM 47.7°F8.7°C 44.3°F6.8°C 88% 1.6 mph SW2.6 kmh SW 2.5 mph4.0 kmh 29.44 in997.0 mb 0.00 in0.0 mm 0.00 in0.0 mm 0.00 in0.0 mm
12:25 AM 47.5°F8.6°C 44.1°F6.7°C 88% 3.8 mph SW6.1 kmh SW 3.8 mph6.1 kmh 29.44 in997.0 mb 0.00 in0.0 mm 0.00 in0.0 mm 0.00 in0.0 mm
12:30 AM 47.5°F8.6°C 44.1°F6.7°C 88% Calm Calm 3.8 mph6.1 kmh 29.44 in997.0 mb 0.00 in0.0 mm 0.00 in0.0 mm 0.00 in0.0 mm
12:35 AM 47.5°F8.6°C 44.1°F6.7°C 88% 1.8 mph SW2.9 kmh SW 3.1 mph5.0 kmh 29.44 in997.0 mb 0.00 in0.0 mm 0.00 in0.0 mm 0.00 in0.0 mm
12:40 AM 47.5°F8.6°C 44.1°F6.7°C 88% 2.5 mph SW4.0 kmh SW 2.7 mph4.3 kmh 29.43 in996.6 mb 0.00 in0.0 mm 0.00 in0.0 mm 0.00 in0.0 mm
12:45 AM 47.5°F8.6°C 44.1°F6.7°C 88% 2.0 mph SW3.2 kmh SW 2.7 mph4.3 kmh 29.43 in996.6 mb 0.00 in0.0 mm 0.00 in0.0 mm 0.00 in0.0 mm
12:50 AM 47.7°F8.7°C 44.3°F6.8°C 88% Calm Calm 2.5 mph4.0 kmh 29.42 in996.3 mb 0.00 in0.0 mm 0.00 in0.0 mm 0.00 in0.0 mm
12:55 AM 47.5°F8.6°C 44.1°F6.7°C 88% Calm Calm 2.7 mph4.3 kmh 29.42 in996.3 mb 0.00 in0.0 mm 0.00 in0.0 mm 0.00 in0.0 mm
01:00 AM 47.5°F8.6°C 44.1°F6.7°C 88% Calm Calm 2.7 mph4.3 kmh 29.42 in996.3 mb 0.00 in0.0 mm 0.00 in0.0 mm 0.00 in0.0 mm
01:05 AM 47.5°F8.6°C 44.1°F6.7°C 88% Calm Calm 2.5 mph4.0 kmh 29.42 in996.3 mb 0.00 in0.0 mm 0.00 in0.0 mm 0.00 in0.0 mm
01:10 AM 47.5°F8.6°C 44.1°F6.7°C 88% 3.4 mph SW5.5 kmh SW 3.4 mph5.5 kmh 29.43 in996.6 mb 0.00 in0.0 mm 0.00 in0.0 mm 0.00 in0.0 mm
01:15 AM 47.5°F8.6°C 44.1°F6.7°C 88% 2.7 mph SW4.3 kmh SW 5.1 mph8.2 kmh 29.42 in996.3 mb 0.00 in0.0 mm 0.00 in0.0 mm 0.00 in0.0 mm
01:20 AM 47.5°F8.6°C 44.1°F6.7°C 88% 2.2 mph SSW3.5 kmh SSW 5.1 mph8.2 kmh 29.42 in996.3 mb 0.00 in0.0 mm 0.00 in0.0 mm 0.00 in0.0 mm
01:25 AM 47.7°F8.7°C 44.3°F6.8°C 88% 1.1 mph SSW1.8 kmh SSW 3.4 mph5.5 kmh 29.41 in995.9 mb 0.00 in0.0 mm 0.00 in0.0 mm 0.00 in0.0 mm
01:30 AM 47.8°F8.8°C 44.5°F6.9°C 88% 1.6 mph SW2.6 kmh SW 2.5 mph4.0 kmh 29.41 in995.9 mb 0.00 in0.0 mm 0.00 in0.0 mm 0.00 in0.0 mm
01:35 AM 47.8°F8.8°C 44.5°F6.9°C 88% 2.9 mph SW4.7 kmh SW 4.5 mph7.2 kmh 29.41 in995.9 mb 0.00 in0.0 mm 0.00 in0.0 mm 0.00 in0.0 mm
01:40 AM 47.8°F8.8°C 44.2°F6.8°C 87% 2.0 mph SW3.2 kmh SW 4.5 mph7.2 kmh 29.41 in995.9 mb 0.00 in0.0 mm 0.00 in0.0 mm 0.00 in0.0 mm
01:45 AM 48.0°F8.9°C 44.3°F6.8°C 87% 2.7 mph SSW4.3 kmh SSW 4.7 mph7.6 kmh 29.41 in995.9 mb 0.00 in0.0 mm 0.00 in0.0 mm 0.00 in0.0 mm
01:50 AM 48.0°F8.9°C 44.3°F6.8°C 87% 2.5 mph SW4.0 kmh SW 4.7 mph7.6 kmh 29.40 in995.6 mb 0.00 in0.0 mm 0.00 in0.0 mm 0.00 in0.0 mm
01:55 AM 47.8°F8.8°C 44.2°F6.8°C 87% Calm Calm 4.7 mph7.6 kmh 29.40 in995.6 mb 0.00 in0.0 mm 0.00 in0.0 mm 0.00 in0.0 mm
02:00 AM 48.0°F8.9°C 44.3°F6.8°C 87% 2.0 mph S3.2 kmh S 3.6 mph5.8 kmh 29.40 in995.6 mb 0.00 in0.0 mm 0.00 in0.0 mm 0.00 in0.0 mm
02:05 AM 48.0°F8.9°C 44.0°F6.7°C 86% 1.3 mph SSW2.1 kmh SSW 3.6 mph5.8 kmh 29.40 in995.6 mb 0.00 in0.0 mm 0.00 in0.0 mm 0.00 in0.0 mm
02:10 AM 48.0°F8.9°C 43.4°F6.3°C 84% 2.0 mph S3.2 kmh S 3.8 mph6.1 kmh 29.40 in995.6 mb 0.00 in0.0 mm 0.00 in0.0 mm 0.00 in0.0 mm
02:15 AM 48.4°F9.1°C 43.7°F6.5°C 84% 3.4 mph SSW5.5 kmh SSW 3.8 mph6.1 kmh 29.40 in995.6 mb 0.00 in0.0 mm 0.00 in0.0 mm 0.00 in0.0 mm
02:20 AM 48.4°F9.1°C 43.7°F6.5°C 84% Calm Calm 3.8 mph6.1 kmh 29.40 in995.6 mb 0.00 in0.0 mm 0.00 in0.0 mm 0.00 in0.0 mm
02:25 AM 48.6°F9.2°C 43.6°F6.4°C 83% Calm Calm 3.8 mph6.1 kmh 29.40 in995.6 mb 0.00 in0.0 mm 0.00 in0.0 mm 0.00 in0.0 mm
02:30 AM 48.9°F9.4°C 43.9°F6.6°C 83% Calm Calm 2.9 mph4.7 kmh 29.40 in995.6 mb 0.00 in0.0 mm 0.00 in0.0 mm 0.00 in0.0 mm
02:35 AM 48.9°F9.4°C 43.9°F6.6°C 83% 2.0 mph SW3.2 kmh SW 2.5 mph4.0 kmh 29.40 in995.6 mb 0.00 in0.0 mm 0.00 in0.0 mm 0.00 in0.0 mm
02:40 AM 48.7°F9.3°C 43.4°F6.3°C 82% Calm Calm 2.5 mph4.0 kmh 29.40 in995.6 mb 0.00 in0.0 mm 0.00 in0.0 mm 0.00 in0.0 mm
02:45 AM 48.7°F9.3°C 43.1°F6.2°C 81% Calm Calm 2.5 mph4.0 kmh 29.40 in995.6 mb 0.00 in0.0 mm 0.00 in0.0 mm 0.00 in0.0 mm
02:50 AM 48.9°F9.4°C 43.6°F6.4°C 82% Calm Calm 2.5 mph4.0 kmh 29.40 in995.6 mb 0.00 in0.0 mm 0.00 in0.0 mm 0.00 in0.0 mm
02:55 AM 48.7°F9.3°C 43.4°F6.3°C 82% Calm Calm 1.3 mph2.1 kmh 29.40 in995.6 mb 0.00 in0.0 mm 0.00 in0.0 mm 0.00 in0.0 mm
03:00 AM 48.7°F9.3°C 43.4°F6.3°C 82% 1.3 mph SW2.1 kmh SW 2.7 mph4.3 kmh 29.40 in995.6 mb 0.00 in0.0 mm 0.00 in0.0 mm 0.00 in0.0 mm
03:05 AM 48.2°F9.0°C 42.9°F6.1°C 82% Calm Calm 1.4 mph2.3 kmh 29.40 in995.6 mb 0.00 in0.0 mm 0.00 in0.0 mm 0.00 in0.0 mm
03:10 AM 48.4°F9.1°C 43.4°F6.3°C 83% Calm Calm 2.9 mph4.7 kmh 29.39 in995.3 mb 0.00 in0.0 mm 0.00 in0.0 mm 0.00 in0.0 mm
03:15 AM 48.0°F8.9°C 43.1°F6.2°C 83% 1.1 mph SSW1.8 kmh SSW 3.6 mph5.8 kmh 29.39 in995.3 mb 0.00 in0.0 mm 0.00 in0.0 mm 0.00 in0.0 mm
03:20 AM 48.0°F8.9°C 42.7°F5.9°C 82% Calm Calm 3.6 mph5.8 kmh 29.39 in995.3 mb 0.00 in0.0 mm 0.00 in0.0 mm 0.00 in0.0 mm
03:25 AM 48.2°F9.0°C 43.2°F6.2°C 83% 2.2 mph S3.5 kmh S 2.2 mph3.5 kmh 29.39 in995.3 mb 0.00 in0.0 mm 0.00 in0.0 mm 0.00 in0.0 mm
03:30 AM 48.0°F8.9°C 43.1°F6.2°C 83% 3.1 mph SW5.0 kmh SW 4.5 mph7.2 kmh 29.39 in995.3 mb 0.00 in0.0 mm 0.00 in0.0 mm 0.00 in0.0 mm
03:35 AM 48.0°F8.9°C 43.1°F6.2°C 83% Calm Calm 4.5 mph7.2 kmh 29.39 in995.3 mb 0.00 in0.0 mm 0.00 in0.0 mm 0.00 in0.0 mm
03:40 AM 48.0°F8.9°C 43.1°F6.2°C 83% Calm Calm 3.1 mph5.0 kmh 29.39 in995.3 mb 0.00 in0.0 mm 0.00 in0.0 mm 0.00 in0.0 mm
03:45 AM 48.0°F8.9°C 43.1°F6.2°C 83% Calm Calm 2.9 mph4.7 kmh 29.39 in995.3 mb 0.00 in0.0 mm 0.00 in0.0 mm 0.00 in0.0 mm
03:50 AM 48.4°F9.1°C 43.4°F6.3°C 83% 0.9 mph E1.4 kmh E 3.4 mph5.5 kmh 29.39 in995.3 mb 0.00 in0.0 mm 0.00 in0.0 mm 0.00 in0.0 mm
03:55 AM 48.7°F9.3°C 43.8°F6.6°C 83% 3.1 mph E5.0 kmh E 4.5 mph7.2 kmh 29.39 in995.3 mb 0.00 in0.0 mm 0.00 in0.0 mm 0.00 in0.0 mm
04:00 AM 48.9°F9.4°C 43.9°F6.6°C 83% 2.0 mph E3.2 kmh E 4.5 mph7.2 kmh 29.39 in995.3 mb 0.00 in0.0 mm 0.00 in0.0 mm 0.00 in0.0 mm
04:05 AM 49.1°F9.5°C 44.1°F6.7°C 83% 0.9 mph E1.4 kmh E 2.0 mph3.2 kmh 29.39 in995.3 mb 0.00 in0.0 mm 0.00 in0.0 mm 0.00 in0.0 mm
04:10 AM 48.9°F9.4°C 44.2°F6.8°C 84% Calm Calm 2.0 mph3.2 kmh 29.39 in995.3 mb 0.00 in0.0 mm 0.00 in0.0 mm 0.00 in0.0 mm
04:15 AM 48.9°F9.4°C 44.2°F6.8°C 84% Calm Calm 2.0 mph3.2 kmh 29.39 in995.3 mb 0.00 in0.0 mm 0.00 in0.0 mm 0.00 in0.0 mm
04:20 AM 48.9°F9.4°C 44.2°F6.8°C 84% Calm Calm 3.8 mph6.1 kmh 29.39 in995.3 mb 0.00 in0.0 mm 0.00 in0.0 mm 0.00 in0.0 mm
04:25 AM 48.9°F9.4°C 44.2°F6.8°C 84% Calm Calm 3.8 mph6.1 kmh 29.39 in995.3 mb 0.00 in0.0 mm 0.00 in0.0 mm 0.00 in0.0 mm
04:30 AM 49.1°F9.5°C 44.4°F6.9°C 84% Calm Calm 2.2 mph3.5 kmh 29.39 in995.3 mb 0.00 in0.0 mm 0.00 in0.0 mm 0.00 in0.0 mm
04:35 AM 49.1°F9.5°C 44.7°F7.1°C 85% 2.2 mph NE3.5 kmh NE 2.2 mph3.5 kmh 29.39 in995.3 mb 0.00 in0.0 mm 0.00 in0.0 mm 0.00 in0.0 mm
04:40 AM 49.3°F9.6°C 44.9°F7.2°C 85% Calm Calm 4.3 mph6.9 kmh 29.39 in995.3 mb 0.00 in0.0 mm 0.00 in0.0 mm 0.00 in0.0 mm
04:45 AM 49.3°F9.6°C 44.9°F7.2°C 85% 2.5 mph NNE4.0 kmh NNE 4.3 mph6.9 kmh 29.39 in995.3 mb 0.00 in0.0 mm 0.00 in0.0 mm 0.00 in0.0 mm
04:50 AM 49.3°F9.6°C 44.9°F7.2°C 85% 0.9 mph NE1.4 kmh NE 2.5 mph4.0 kmh 29.39 in995.3 mb 0.00 in0.0 mm 0.00 in0.0 mm 0.00 in0.0 mm
04:55 AM 49.3°F9.6°C 45.2°F7.3°C 86% Calm Calm 3.1 mph5.0 kmh 29.39 in995.3 mb 0.00 in0.0 mm 0.00 in0.0 mm 0.00 in0.0 mm
05:00 AM 49.3°F9.6°C 45.2°F7.3°C 86% 0.7 mph NNE1.1 kmh NNE 3.1 mph5.0 kmh 29.38 in994.9 mb 0.00 in0.0 mm 0.00 in0.0 mm 0.00 in0.0 mm
05:05 AM 49.3°F9.6°C 45.2°F7.3°C 86% Calm Calm 3.1 mph5.0 kmh 29.38 in994.9 mb 0.00 in0.0 mm 0.00 in0.0 mm 0.00 in0.0 mm
05:10 AM 49.3°F9.6°C 45.2°F7.3°C 86% 1.3 mph NNE2.1 kmh NNE 2.5 mph4.0 kmh 29.38 in994.9 mb 0.00 in0.0 mm 0.00 in0.0 mm 0.00 in0.0 mm
05:15 AM 49.5°F9.7°C 45.4°F7.4°C 86% Calm Calm 2.0 mph3.2 kmh 29.38 in994.9 mb 0.00 in0.0 mm 0.00 in0.0 mm 0.00 in0.0 mm
05:20 AM 49.6°F9.8°C 45.6°F7.6°C 86% Calm Calm 2.0 mph3.2 kmh 29.38 in994.9 mb 0.00 in0.0 mm 0.00 in0.0 mm 0.00 in0.0 mm
05:25 AM 49.6°F9.8°C 45.6°F7.6°C 86% 0.9 mph NE1.4 kmh NE 3.1 mph5.0 kmh 29.38 in994.9 mb 0.00 in0.0 mm 0.00 in0.0 mm 0.00 in0.0 mm
05:30 AM 49.8°F9.9°C 46.0°F7.8°C 87% 1.6 mph NE2.6 kmh NE 3.1 mph5.0 kmh 29.38 in994.9 mb 0.00 in0.0 mm 0.00 in0.0 mm 0.00 in0.0 mm
05:35 AM 49.8°F9.9°C 46.0°F7.8°C 87% 2.2 mph NNE3.5 kmh NNE 3.6 mph5.8 kmh 29.38 in994.9 mb 0.00 in0.0 mm 0.00 in0.0 mm 0.00 in0.0 mm
05:40 AM 49.8°F9.9°C 46.0°F7.8°C 87% 3.4 mph NNE5.5 kmh NNE 3.6 mph5.8 kmh 29.38 in994.9 mb 0.00 in0.0 mm 0.00 in0.0 mm 0.00 in0.0 mm
05:45 AM 49.8°F9.9°C 46.0°F7.8°C 87% 4.9 mph NNE7.9 kmh NNE 11.6 mph18.7 kmh 29.38 in994.9 mb 0.00 in0.0 mm 0.00 in0.0 mm 0.00 in0.0 mm
05:50 AM 49.8°F9.9°C 45.7°F7.6°C 86% 5.8 mph NE9.3 kmh NE 15.4 mph24.8 kmh 29.38 in994.9 mb 0.00 in0.0 mm 0.00 in0.0 mm 0.00 in0.0 mm
05:55 AM 50.2°F10.1°C 45.8°F7.7°C 85% 4.7 mph NE7.6 kmh NE 15.4 mph24.8 kmh 29.38 in994.9 mb 0.00 in0.0 mm 0.00 in0.0 mm 0.00 in0.0 mm
06:00 AM 50.4°F10.2°C 46.0°F7.8°C 85% 10.1 mph NE16.3 kmh NE 10.1 mph16.3 kmh 29.38 in994.9 mb 0.00 in0.0 mm 0.00 in0.0 mm 0.00 in0.0 mm
06:05 AM 50.7°F10.4°C 46.0°F7.8°C 84% 7.4 mph NE11.9 kmh NE 15.2 mph24.5 kmh 29.38 in994.9 mb 0.00 in0.0 mm 0.00 in0.0 mm 0.00 in0.0 mm
06:10 AM 50.7°F10.4°C 46.0°F7.8°C 84% 6.3 mph NE10.1 kmh NE 15.2 mph24.5 kmh 29.38 in994.9 mb 0.00 in0.0 mm 0.00 in0.0 mm 0.00 in0.0 mm
06:15 AM 50.9°F10.5°C 45.9°F7.7°C 83% 5.1 mph NNE8.2 kmh NNE 10.3 mph16.6 kmh 29.38 in994.9 mb 0.00 in0.0 mm 0.00 in0.0 mm 0.00 in0.0 mm
06:20 AM 50.9°F10.5°C 45.9°F7.7°C 83% 6.9 mph NNE11.1 kmh NNE 10.3 mph16.6 kmh 29.37 in994.6 mb 0.00 in0.0 mm 0.00 in0.0 mm 0.00 in0.0 mm
06:25 AM 50.9°F10.5°C 45.9°F7.7°C 83% 3.6 mph NNE5.8 kmh NNE 10.5 mph16.9 kmh 29.37 in994.6 mb 0.00 in0.0 mm 0.00 in0.0 mm 0.00 in0.0 mm
06:30 AM 51.1°F10.6°C 46.1°F7.8°C 83% 2.0 mph N3.2 kmh N 10.5 mph16.9 kmh 29.37 in994.6 mb 0.00 in0.0 mm 0.00 in0.0 mm 0.00 in0.0 mm
06:35 AM 51.1°F10.6°C 46.1°F7.8°C 83% 1.8 mph N2.9 kmh N 5.8 mph9.3 kmh 29.36 in994.2 mb 0.00 in0.0 mm 0.00 in0.0 mm 0.00 in0.0 mm
06:40 AM 51.1°F10.6°C 46.1°F7.8°C 83% 3.1 mph NNE5.0 kmh NNE 5.8 mph9.3 kmh 29.35 in993.9 mb 0.00 in0.0 mm 0.00 in0.0 mm 0.00 in0.0 mm
06:45 AM 51.1°F10.6°C 46.4°F8.0°C 84% 3.6 mph NNE5.8 kmh NNE 4.5 mph7.2 kmh 29.35 in993.9 mb 0.00 in0.0 mm 0.00 in0.0 mm 0.00 in0.0 mm
06:50 AM 50.9°F10.5°C 46.2°F7.9°C 84% 1.3 mph NNE2.1 kmh NNE 5.1 mph8.2 kmh 29.34 in993.6 mb 0.00 in0.0 mm 0.00 in0.0 mm 0.00 in0.0 mm
06:55 AM 50.9°F10.5°C 46.2°F7.9°C 84% 7.2 mph NNE11.6 kmh NNE 10.1 mph16.3 kmh 29.34 in993.6 mb 0.00 in0.0 mm 0.00 in0.0 mm 0.00 in0.0 mm
07:00 AM 51.1°F10.6°C 46.7°F8.2°C 85% 5.1 mph N8.2 kmh N 11.4 mph18.3 kmh 29.34 in993.6 mb 0.00 in0.0 mm 0.00 in0.0 mm 0.00 in0.0 mm
07:05 AM 50.9°F10.5°C 46.5°F8.1°C 85% 14.1 mph NNE22.7 kmh NNE 14.1 mph22.7 kmh 29.34 in993.6 mb 0.00 in0.0 mm 0.00 in0.0 mm 0.00 in0.0 mm
07:10 AM 51.1°F10.6°C 46.7°F8.2°C 85% 7.6 mph N12.2 kmh N 14.1 mph22.7 kmh 29.34 in993.6 mb 0.00 in0.0 mm 0.00 in0.0 mm 0.00 in0.0 mm
07:15 AM 51.1°F10.6°C 46.7°F8.2°C 85% 7.6 mph NNE12.2 kmh NNE 13.9 mph22.4 kmh 29.34 in993.6 mb 0.00 in0.0 mm 0.00 in0.0 mm 0.00 in0.0 mm
07:20 AM 51.1°F10.6°C 46.7°F8.2°C 85% 4.0 mph NNE6.4 kmh NNE 13.2 mph21.2 kmh 29.35 in993.9 mb 0.00 in0.0 mm 0.00 in0.0 mm 0.00 in0.0 mm
07:25 AM 51.1°F10.6°C 46.7°F8.2°C 85% 5.4 mph NNE8.7 kmh NNE 13.2 mph21.2 kmh 29.36 in994.2 mb 0.00 in0.0 mm 0.00 in0.0 mm 0.00 in0.0 mm
07:30 AM 51.1°F10.6°C 46.7°F8.2°C 85% 5.6 mph NNE9.0 kmh NNE 10.5 mph16.9 kmh 29.37 in994.6 mb 0.00 in0.0 mm 0.00 in0.0 mm 0.00 in0.0 mm
07:35 AM 51.1°F10.6°C 46.7°F8.2°C 85% 6.0 mph NE9.7 kmh NE 10.5 mph16.9 kmh 29.37 in994.6 mb 0.00 in0.0 mm 0.00 in0.0 mm 0.00 in0.0 mm
07:40 AM 51.3°F10.7°C 46.8°F8.2°C 85% 12.8 mph NNE20.6 kmh NNE 12.8 mph20.6 kmh 29.37 in994.6 mb 0.00 in0.0 mm 0.00 in0.0 mm 0.00 in0.0 mm
07:45 AM 51.4°F10.8°C 47.0°F8.3°C 85% 5.4 mph NNE8.7 kmh NNE 12.8 mph20.6 kmh 29.37 in994.6 mb 0.00 in0.0 mm 0.00 in0.0 mm 0.00 in0.0 mm
07:50 AM 51.4°F10.8°C 47.0°F8.3°C 85% 4.7 mph NNE7.6 kmh NNE 12.5 mph20.1 kmh 29.37 in994.6 mb 0.00 in0.0 mm 0.00 in0.0 mm 0.00 in0.0 mm
07:55 AM 51.3°F10.7°C 47.2°F8.4°C 86% 3.8 mph NNE6.1 kmh NNE 10.3 mph16.6 kmh 29.35 in993.9 mb 0.00 in0.0 mm 0.00 in0.0 mm 0.00 in0.0 mm
08:00 AM 51.1°F10.6°C 47.0°F8.3°C 86% 6.3 mph NNE10.1 kmh NNE 8.9 mph14.3 kmh 29.36 in994.2 mb 0.00 in0.0 mm 0.00 in0.0 mm 0.00 in0.0 mm
08:05 AM 51.1°F10.6°C 47.3°F8.5°C 87% 3.1 mph NNE5.0 kmh NNE 7.8 mph12.6 kmh 29.36 in994.2 mb 0.00 in0.0 mm 0.00 in0.0 mm 0.00 in0.0 mm
08:10 AM 51.1°F10.6°C 47.3°F8.5°C 87% Calm Calm 8.3 mph13.4 kmh 29.36 in994.2 mb 0.00 in0.0 mm 0.00 in0.0 mm 0.00 in0.0 mm
08:15 AM 51.1°F10.6°C 47.3°F8.5°C 87% Calm Calm 8.3 mph13.4 kmh 29.36 in994.2 mb 0.00 in0.0 mm 0.00 in0.0 mm 0.00 in0.0 mm
08:20 AM 51.1°F10.6°C 47.0°F8.3°C 86% 4.9 mph N7.9 kmh N 6.9 mph11.1 kmh 29.36 in994.2 mb 0.00 in0.0 mm 0.00 in0.0 mm 0.00 in0.0 mm
08:25 AM 51.1°F10.6°C 47.0°F8.3°C 86% 8.3 mph NNE13.4 kmh NNE 9.8 mph15.8 kmh 29.36 in994.2 mb 0.00 in0.0 mm 0.00 in0.0 mm 0.00 in0.0 mm
08:30 AM 51.3°F10.7°C 47.2°F8.4°C 86% 3.6 mph NNE5.8 kmh NNE 9.8 mph15.8 kmh 29.36 in994.2 mb 0.00 in0.0 mm 0.00 in0.0 mm 0.00 in0.0 mm
08:35 AM 51.3°F10.7°C 47.2°F8.4°C 86% 2.9 mph NNE4.7 kmh NNE 8.9 mph14.3 kmh 29.37 in994.6 mb 0.00 in0.0 mm 0.00 in0.0 mm 0.00 in0.0 mm
08:40 AM 51.4°F10.8°C 47.3°F8.5°C 86% 1.6 mph NNE2.6 kmh NNE 8.1 mph13.0 kmh 29.37 in994.6 mb 0.00 in0.0 mm 0.00 in0.0 mm 0.00 in0.0 mm
08:45 AM 51.3°F10.7°C 47.2°F8.4°C 86% 5.4 mph N8.7 kmh N 7.4 mph11.9 kmh 29.36 in994.2 mb 0.00 in0.0 mm 0.00 in0.0 mm 0.00 in0.0 mm
08:50 AM 51.3°F10.7°C 47.2°F8.4°C 86% Calm Calm 7.4 mph11.9 kmh 29.36 in994.2 mb 0.00 in0.0 mm 0.00 in0.0 mm 0.00 in0.0 mm
08:55 AM 51.6°F10.9°C 47.5°F8.6°C 86% 8.5 mph N13.7 kmh N 10.3 mph16.6 kmh 29.36 in994.2 mb 0.00 in0.0 mm 0.00 in0.0 mm 0.00 in0.0 mm
09:00 AM 51.6°F10.9°C 47.5°F8.6°C 86% 5.4 mph N8.7 kmh N 10.3 mph16.6 kmh 29.36 in994.2 mb 0.00 in0.0 mm 0.00 in0.0 mm 0.00 in0.0 mm
09:05 AM 51.6°F10.9°C 47.5°F8.6°C 86% 2.5 mph NNE4.0 kmh NNE 10.1 mph16.3 kmh 29.35 in993.9 mb 0.00 in0.0 mm 0.00 in0.0 mm 0.00 in0.0 mm
09:10 AM 51.6°F10.9°C 47.5°F8.6°C 86% 2.0 mph N3.2 kmh N 10.5 mph16.9 kmh 29.33 in993.2 mb 0.00 in0.0 mm 0.00 in0.0 mm 0.00 in0.0 mm
09:15 AM 52.0°F11.1°C 47.6°F8.7°C 85% 2.9 mph N4.7 kmh N 17.0 mph27.4 kmh 29.33 in993.2 mb 0.00 in0.0 mm 0.00 in0.0 mm 0.00 in0.0 mm
09:20 AM 52.0°F11.1°C 47.6°F8.7°C 85% 1.1 mph N1.8 kmh N 17.0 mph27.4 kmh 29.32 in992.9 mb 0.00 in0.0 mm 0.00 in0.0 mm 0.00 in0.0 mm
09:25 AM 52.2°F11.2°C 48.1°F8.9°C 85% 5.8 mph NNE9.3 kmh NNE 11.4 mph18.3 kmh 29.32 in992.9 mb 0.00 in0.0 mm 0.00 in0.0 mm 0.00 in0.0 mm
09:30 AM 52.2°F11.2°C 47.8°F8.8°C 85% 3.6 mph NNE5.8 kmh NNE 11.4 mph18.3 kmh 29.31 in992.6 mb 0.00 in0.0 mm 0.00 in0.0 mm 0.00 in0.0 mm
09:35 AM 52.2°F11.2°C 48.1°F8.9°C 86% 1.8 mph NNE2.9 kmh NNE 12.8 mph20.6 kmh 29.30 in992.2 mb 0.00 in0.0 mm 0.00 in0.0 mm 0.00 in0.0 mm
09:40 AM 52.3°F11.3°C 48.2°F9.0°C 86% 4.3 mph NNE6.9 kmh NNE 12.8 mph20.6 kmh 29.31 in992.6 mb 0.00 in0.0 mm 0.00 in0.0 mm 0.00 in0.0 mm
09:45 AM 52.3°F11.3°C 48.2°F9.0°C 86% 14.3 mph NNE23.0 kmh NNE 15.4 mph24.8 kmh 29.30 in992.2 mb 0.00 in0.0 mm 0.00 in0.0 mm 0.00 in0.0 mm
09:50 AM 52.2°F11.2°C 48.4°F9.1°C 87% 6.0 mph NNE9.7 kmh NNE 15.4 mph24.8 kmh 29.30 in992.2 mb 0.00 in0.0 mm 0.00 in0.0 mm 0.00 in0.0 mm
09:55 AM 52.3°F11.3°C 48.5°F9.2°C 87% 8.1 mph NNE13.0 kmh NNE 15.0 mph24.1 kmh 29.30 in992.2 mb 0.00 in0.0 mm 0.00 in0.0 mm 0.00 in0.0 mm
10:00 AM 52.2°F11.2°C 48.4°F9.1°C 87% 8.3 mph NNE13.4 kmh NNE 9.4 mph15.1 kmh 29.30 in992.2 mb 0.00 in0.0 mm 0.00 in0.0 mm 0.00 in0.0 mm
10:05 AM 52.2°F11.2°C 48.4°F9.1°C 87% 7.6 mph N12.2 kmh N 14.3 mph23.0 kmh 29.29 in991.9 mb 0.00 in0.0 mm 0.00 in0.0 mm 0.00 in0.0 mm
10:10 AM 52.0°F11.1°C 48.2°F9.0°C 87% 5.1 mph N8.2 kmh N 14.3 mph23.0 kmh 29.29 in991.9 mb 0.00 in0.0 mm 0.00 in0.0 mm 0.00 in0.0 mm
10:15 AM 52.0°F11.1°C 47.9°F8.8°C 86% 3.8 mph N6.1 kmh N 16.6 mph26.7 kmh 29.29 in991.9 mb 0.00 in0.0 mm 0.00 in0.0 mm 0.00 in0.0 mm
10:20 AM 52.0°F11.1°C 47.6°F8.7°C 85% 11.6 mph N18.7 kmh N 16.6 mph26.7 kmh 29.29 in991.9 mb 0.00 in0.0 mm 0.00 in0.0 mm 0.00 in0.0 mm
10:25 AM 52.0°F11.1°C 47.3°F8.5°C 84% 15.9 mph N25.6 kmh N 18.1 mph29.1 kmh 29.30 in992.2 mb 0.00 in0.0 mm 0.00 in0.0 mm 0.00 in0.0 mm
10:30 AM 52.0°F11.1°C 47.0°F8.3°C 83% 10.3 mph NNE16.6 kmh NNE 20.6 mph33.2 kmh 29.30 in992.2 mb 0.00 in0.0 mm 0.00 in0.0 mm 0.00 in0.0 mm
10:35 AM 52.0°F11.1°C 46.3°F7.9°C 81% 2.5 mph NNE4.0 kmh NNE 20.6 mph33.2 kmh 29.30 in992.2 mb 0.00 in0.0 mm 0.00 in0.0 mm 0.00 in0.0 mm
10:40 AM 52.2°F11.2°C 46.5°F8.1°C 81% 5.4 mph NNE8.7 kmh NNE 19.5 mph31.4 kmh 29.30 in992.2 mb 0.00 in0.0 mm 0.00 in0.0 mm 0.00 in0.0 mm
10:45 AM 52.2°F11.2°C 46.5°F8.1°C 81% 3.4 mph NE5.5 kmh NE 19.0 mph30.6 kmh 29.30 in992.2 mb 0.00 in0.0 mm 0.00 in0.0 mm 0.00 in0.0 mm
10:50 AM 52.0°F11.1°C 46.0°F7.8°C 80% 6.5 mph NNE10.5 kmh NNE 15.4 mph24.8 kmh 29.30 in992.2 mb 0.00 in0.0 mm 0.00 in0.0 mm 0.00 in0.0 mm
10:55 AM 52.0°F11.1°C 46.0°F7.8°C 80% 6.5 mph N10.5 kmh N 13.0 mph20.9 kmh 29.30 in992.2 mb 0.00 in0.0 mm 0.00 in0.0 mm 0.00 in0.0 mm
11:00 AM 52.0°F11.1°C 45.7°F7.6°C 79% 8.1 mph N13.0 kmh N 13.0 mph20.9 kmh 29.30 in992.2 mb 0.00 in0.0 mm 0.00 in0.0 mm 0.00 in0.0 mm
11:05 AM 52.0°F11.1°C 45.7°F7.6°C 79% 6.0 mph N9.7 kmh N 12.3 mph19.8 kmh 29.29 in991.9 mb 0.00 in0.0 mm 0.00 in0.0 mm 0.00 in0.0 mm
11:10 AM 52.0°F11.1°C 45.7°F7.6°C 79% 4.7 mph N7.6 kmh N 12.8 mph20.6 kmh 29.29 in991.9 mb 0.00 in0.0 mm 0.00 in0.0 mm 0.00 in0.0 mm
11:15 AM 51.8°F11.0°C 45.2°F7.3°C 78% 10.3 mph N16.6 kmh N 13.6 mph21.9 kmh 29.29 in991.9 mb 0.00 in0.0 mm 0.00 in0.0 mm 0.00 in0.0 mm
11:20 AM 51.8°F11.0°C 45.2°F7.3°C 78% 5.1 mph N8.2 kmh N 18.3 mph29.5 kmh 29.29 in991.9 mb 0.00 in0.0 mm 0.00 in0.0 mm 0.00 in0.0 mm
11:25 AM 51.8°F11.0°C 45.5°F7.5°C 79% 9.4 mph NNE15.1 kmh NNE 18.3 mph29.5 kmh 29.29 in991.9 mb 0.00 in0.0 mm 0.00 in0.0 mm 0.00 in0.0 mm
11:30 AM 52.0°F11.1°C 45.3°F7.4°C 78% 2.5 mph NNE4.0 kmh NNE 14.3 mph23.0 kmh 29.28 in991.5 mb 0.00 in0.0 mm 0.00 in0.0 mm 0.00 in0.0 mm
11:35 AM 52.0°F11.1°C 45.3°F7.4°C 78% 10.7 mph NNE17.2 kmh NNE 15.4 mph24.8 kmh 29.28 in991.5 mb 0.00 in0.0 mm 0.00 in0.0 mm 0.00 in0.0 mm
11:40 AM 52.2°F11.2°C 45.2°F7.3°C 77% 2.2 mph NNE3.5 kmh NNE 15.4 mph24.8 kmh 29.28 in991.5 mb 0.00 in0.0 mm 0.00 in0.0 mm 0.00 in0.0 mm
11:45 AM 52.2°F11.2°C 45.2°F7.3°C 77% Calm Calm 14.8 mph23.8 kmh 29.27 in991.2 mb 0.00 in0.0 mm 0.00 in0.0 mm 0.00 in0.0 mm
11:50 AM 52.3°F11.3°C 45.4°F7.4°C 77% 1.6 mph N2.6 kmh N 10.7 mph17.2 kmh 29.27 in991.2 mb 0.00 in0.0 mm 0.00 in0.0 mm 0.00 in0.0 mm
11:55 AM 52.5°F11.4°C 45.5°F7.5°C 77% 5.6 mph N9.0 kmh N 11.2 mph18.0 kmh 29.27 in991.2 mb 0.00 in0.0 mm 0.00 in0.0 mm 0.00 in0.0 mm
12:00 PM 52.5°F11.4°C 45.2°F7.3°C 76% Calm Calm 14.5 mph23.3 kmh 29.26 in990.9 mb 0.00 in0.0 mm 0.00 in0.0 mm 0.00 in0.0 mm
12:05 PM 52.5°F11.4°C 45.2°F7.3°C 76% 15.7 mph NNE25.3 kmh NNE 15.7 mph25.3 kmh 29.25 in990.5 mb 0.00 in0.0 mm 0.00 in0.0 mm 0.00 in0.0 mm
12:10 PM 52.5°F11.4°C 45.2°F7.3°C 76% 3.1 mph NNE5.0 kmh NNE 15.7 mph25.3 kmh 29.25 in990.5 mb 0.00 in0.0 mm 0.00 in0.0 mm 0.00 in0.0 mm
12:15 PM 52.5°F11.4°C 45.2°F7.3°C 76% 2.9 mph N4.7 kmh N 13.0 mph20.9 kmh 29.25 in990.5 mb 0.00 in0.0 mm 0.00 in0.0 mm 0.00 in0.0 mm
12:20 PM 52.5°F11.4°C 44.8°F7.1°C 75% 3.6 mph N5.8 kmh N 17.2 mph27.7 kmh 29.25 in990.5 mb 0.00 in0.0 mm 0.00 in0.0 mm 0.00 in0.0 mm
12:25 PM 52.5°F11.4°C 44.8°F7.1°C 75% 8.1 mph N13.0 kmh N 17.2 mph27.7 kmh 29.25 in990.5 mb 0.00 in0.0 mm 0.00 in0.0 mm 0.00 in0.0 mm
12:30 PM 52.5°F11.4°C 45.2°F7.3°C 76% 6.3 mph NE10.1 kmh NE 15.7 mph25.3 kmh 29.24 in990.2 mb 0.00 in0.0 mm 0.00 in0.0 mm 0.00 in0.0 mm
12:35 PM 52.5°F11.4°C 45.2°F7.3°C 77% 6.9 mph NE11.1 kmh NE 13.0 mph20.9 kmh 29.24 in990.2 mb 0.00 in0.0 mm 0.00 in0.0 mm 0.00 in0.0 mm
12:40 PM 52.3°F11.3°C 45.7°F7.6°C 78% 6.5 mph NNE10.5 kmh NNE 15.9 mph25.6 kmh 29.24 in990.2 mb 0.00 in0.0 mm 0.00 in0.0 mm 0.00 in0.0 mm
12:45 PM 52.2°F11.2°C 45.5°F7.5°C 78% 6.0 mph NNE9.7 kmh NNE 15.9 mph25.6 kmh 29.24 in990.2 mb 0.00 in0.0 mm 0.00 in0.0 mm 0.00 in0.0 mm
12:50 PM 52.0°F11.1°C 45.7°F7.6°C 79% 9.8 mph NNE15.8 kmh NNE 15.7 mph25.3 kmh 29.24 in990.2 mb 0.00 in0.0 mm 0.00 in0.0 mm 0.00 in0.0 mm
12:55 PM 52.0°F11.1°C 45.7°F7.6°C 79% 2.0 mph NNE3.2 kmh NNE 15.7 mph25.3 kmh 29.24 in990.2 mb 0.00 in0.0 mm 0.00 in0.0 mm 0.00 in0.0 mm
01:00 PM 52.0°F11.1°C 46.0°F7.8°C 80% 4.3 mph N6.9 kmh N 11.9 mph19.2 kmh 29.24 in990.2 mb 0.00 in0.0 mm 0.00 in0.0 mm 0.00 in0.0 mm
01:05 PM 51.8°F11.0°C 45.9°F7.7°C 80% 2.9 mph N4.7 kmh N 11.9 mph19.2 kmh 29.23 in989.8 mb 0.00 in0.0 mm 0.00 in0.0 mm 0.00 in0.0 mm
01:10 PM 51.8°F11.0°C 46.2°F7.9°C 81% 9.2 mph N14.8 kmh N 13.9 mph22.4 kmh 29.23 in989.8 mb 0.00 in0.0 mm 0.00 in0.0 mm 0.00 in0.0 mm
01:15 PM 51.6°F10.9°C 46.0°F7.8°C 81% 3.4 mph NNW5.5 kmh NNW 13.9 mph22.4 kmh 29.22 in989.5 mb 0.00 in0.0 mm 0.00 in0.0 mm 0.00 in0.0 mm
01:20 PM 51.6°F10.9°C 46.3°F7.9°C 82% 1.6 mph NW2.6 kmh NW 14.5 mph23.3 kmh 29.22 in989.5 mb 0.00 in0.0 mm 0.00 in0.0 mm 0.00 in0.0 mm
01:25 PM 51.6°F10.9°C 46.3°F7.9°C 82% 0.9 mph NNW1.4 kmh NNW 14.5 mph23.3 kmh 29.22 in989.5 mb 0.00 in0.0 mm 0.00 in0.0 mm 0.00 in0.0 mm
01:30 PM 51.6°F10.9°C 46.3°F7.9°C 82% 4.7 mph NW7.6 kmh NW 15.2 mph24.5 kmh 29.22 in989.5 mb 0.00 in0.0 mm 0.00 in0.0 mm 0.00 in0.0 mm
01:35 PM 51.6°F10.9°C 46.3°F7.9°C 82% 1.6 mph NW2.6 kmh NW 15.2 mph24.5 kmh 29.21 in989.2 mb 0.00 in0.0 mm 0.00 in0.0 mm 0.00 in0.0 mm
01:40 PM 51.6°F10.9°C 46.3°F7.9°C 82% 3.4 mph NNE5.5 kmh NNE 11.9 mph19.2 kmh 29.21 in989.2 mb 0.00 in0.0 mm 0.00 in0.0 mm 0.00 in0.0 mm
01:45 PM 51.6°F10.9°C 46.3°F7.9°C 82% 4.5 mph NNE7.2 kmh NNE 11.4 mph18.3 kmh 29.21 in989.2 mb 0.00 in0.0 mm 0.00 in0.0 mm 0.00 in0.0 mm
01:50 PM 51.6°F10.9°C 46.6°F8.1°C 83% 3.4 mph N5.5 kmh N 11.4 mph18.3 kmh 29.20 in988.8 mb 0.00 in0.0 mm 0.00 in0.0 mm 0.00 in0.0 mm
01:55 PM 51.6°F10.9°C 46.3°F7.9°C 82% 14.3 mph N23.0 kmh N 15.9 mph25.6 kmh 29.20 in988.8 mb 0.00 in0.0 mm 0.00 in0.0 mm 0.00 in0.0 mm
02:00 PM 51.6°F10.9°C 46.3°F7.9°C 82% 3.8 mph NNW6.1 kmh NNW 15.9 mph25.6 kmh 29.20 in988.8 mb 0.00 in0.0 mm 0.00 in0.0 mm 0.00 in0.0 mm
02:05 PM 51.6°F10.9°C 46.3°F7.9°C 82% 11.9 mph NNW19.2 kmh NNW 17.2 mph27.7 kmh 29.20 in988.8 mb 0.00 in0.0 mm 0.00 in0.0 mm 0.00 in0.0 mm
02:10 PM 51.8°F11.0°C 46.5°F8.1°C 82% 5.1 mph NNW8.2 kmh NNW 17.2 mph27.7 kmh 29.19 in988.5 mb 0.00 in0.0 mm 0.00 in0.0 mm 0.00 in0.0 mm
02:15 PM 52.0°F11.1°C 46.3°F7.9°C 81% 2.2 mph N3.5 kmh N 15.9 mph25.6 kmh 29.19 in988.5 mb 0.00 in0.0 mm 0.00 in0.0 mm 0.00 in0.0 mm
02:20 PM 52.2°F11.2°C 46.5°F8.1°C 81% 12.5 mph N20.1 kmh N 15.9 mph25.6 kmh 29.19 in988.5 mb 0.00 in0.0 mm 0.00 in0.0 mm 0.00 in0.0 mm
02:25 PM 52.0°F11.1°C 46.7°F8.2°C 82% 4.5 mph NNW7.2 kmh NNW 15.9 mph25.6 kmh 29.19 in988.5 mb 0.00 in0.0 mm 0.00 in0.0 mm 0.00 in0.0 mm
02:30 PM 52.0°F11.1°C 46.3°F7.9°C 81% Calm Calm 16.3 mph26.2 kmh 29.19 in988.5 mb 0.00 in0.0 mm 0.00 in0.0 mm 0.00 in0.0 mm
02:35 PM 52.2°F11.2°C 46.5°F8.1°C 81% 8.9 mph NNE14.3 kmh NNE 16.3 mph26.2 kmh 29.19 in988.5 mb 0.00 in0.0 mm 0.00 in0.0 mm 0.00 in0.0 mm
02:40 PM 52.2°F11.2°C 46.2°F7.9°C 80% 9.8 mph N15.8 kmh N 16.3 mph26.2 kmh 29.19 in988.5 mb 0.00 in0.0 mm 0.00 in0.0 mm 0.00 in0.0 mm
02:45 PM 52.3°F11.3°C 46.4°F8.0°C 80% 2.7 mph N4.3 kmh N 17.0 mph27.4 kmh 29.19 in988.5 mb 0.00 in0.0 mm 0.00 in0.0 mm 0.00 in0.0 mm
02:50 PM 52.3°F11.3°C 46.4°F8.0°C 80% 3.8 mph N6.1 kmh N 17.0 mph27.4 kmh 29.19 in988.5 mb 0.00 in0.0 mm 0.00 in0.0 mm 0.00 in0.0 mm
02:55 PM 52.3°F11.3°C 46.7°F8.2°C 81% 3.1 mph N5.0 kmh N 14.5 mph23.3 kmh 29.19 in988.5 mb 0.00 in0.0 mm 0.00 in0.0 mm 0.00 in0.0 mm
03:00 PM 52.0°F11.1°C 46.0°F7.8°C 80% 4.5 mph NNW7.2 kmh NNW 14.8 mph23.8 kmh 29.19 in988.5 mb 0.00 in0.0 mm 0.00 in0.0 mm 0.00 in0.0 mm
03:05 PM 51.6°F10.9°C 45.7°F7.6°C 80% 5.8 mph NNW9.3 kmh NNW 14.8 mph23.8 kmh 29.19 in988.5 mb 0.00 in0.0 mm 0.00 in0.0 mm 0.00 in0.0 mm
03:10 PM 51.4°F10.8°C 45.2°F7.3°C 79% 5.8 mph NNW9.3 kmh NNW 12.3 mph19.8 kmh 29.19 in988.5 mb 0.00 in0.0 mm 0.00 in0.0 mm 0.00 in0.0 mm
03:15 PM 51.6°F10.9°C 46.0°F7.8°C 81% 1.3 mph NNW2.1 kmh NNW 13.4 mph21.6 kmh 29.19 in988.5 mb 0.00 in0.0 mm 0.00 in0.0 mm 0.00 in0.0 mm
03:20 PM 51.6°F10.9°C 46.0°F7.8°C 81% 6.9 mph NNW11.1 kmh NNW 13.4 mph21.6 kmh 29.19 in988.5 mb 0.00 in0.0 mm 0.00 in0.0 mm 0.00 in0.0 mm
03:25 PM 51.6°F10.9°C 46.3°F7.9°C 82% 2.0 mph NNW3.2 kmh NNW 13.4 mph21.6 kmh 29.19 in988.5 mb 0.00 in0.0 mm 0.00 in0.0 mm 0.00 in0.0 mm
03:30 PM 51.6°F10.9°C 46.3°F7.9°C 82% 6.7 mph NNW10.8 kmh NNW 13.4 mph21.6 kmh 29.20 in988.8 mb 0.00 in0.0 mm 0.00 in0.0 mm 0.00 in0.0 mm
03:35 PM 51.6°F10.9°C 46.6°F8.1°C 83% 8.3 mph N13.4 kmh N 12.5 mph20.1 kmh 29.19 in988.5 mb 0.00 in0.0 mm 0.00 in0.0 mm 0.00 in0.0 mm
03:40 PM 51.6°F10.9°C 46.6°F8.1°C 83% 2.9 mph N4.7 kmh N 12.5 mph20.1 kmh 29.19 in988.5 mb 0.00 in0.0 mm 0.00 in0.0 mm 0.00 in0.0 mm
03:45 PM 51.6°F10.9°C 46.6°F8.1°C 83% 3.6 mph NNW5.8 kmh NNW 14.3 mph23.0 kmh 29.20 in988.8 mb 0.00 in0.0 mm 0.00 in0.0 mm 0.00 in0.0 mm
03:50 PM 51.6°F10.9°C 46.6°F8.1°C 83% 6.9 mph NNW11.1 kmh NNW 14.3 mph23.0 kmh 29.20 in988.8 mb 0.00 in0.0 mm 0.00 in0.0 mm 0.00 in0.0 mm
03:55 PM 51.6°F10.9°C 46.6°F8.1°C 83% 1.8 mph N2.9 kmh N 9.6 mph15.4 kmh 29.20 in988.8 mb 0.00 in0.0 mm 0.00 in0.0 mm 0.00 in0.0 mm
04:00 PM 51.8°F11.0°C 46.8°F8.2°C 83% 7.2 mph N11.6 kmh N 9.2 mph14.8 kmh 29.20 in988.8 mb 0.00 in0.0 mm 0.00 in0.0 mm 0.00 in0.0 mm
04:05 PM 51.8°F11.0°C 46.8°F8.2°C 83% 4.3 mph N6.9 kmh N 9.2 mph14.8 kmh 29.20 in988.8 mb 0.00 in0.0 mm 0.00 in0.0 mm 0.00 in0.0 mm
04:10 PM 51.8°F11.0°C 46.8°F8.2°C 83% 1.1 mph N1.8 kmh N 12.1 mph19.5 kmh 29.20 in988.8 mb 0.00 in0.0 mm 0.00 in0.0 mm 0.00 in0.0 mm
04:15 PM 51.8°F11.0°C 47.1°F8.4°C 84% 3.1 mph NNW5.0 kmh NNW 12.1 mph19.5 kmh 29.20 in988.8 mb 0.00 in0.0 mm 0.00 in0.0 mm 0.00 in0.0 mm
04:20 PM 51.8°F11.0°C 47.1°F8.4°C 84% 0.9 mph N1.4 kmh N 10.3 mph16.6 kmh 29.20 in988.8 mb 0.00 in0.0 mm 0.00 in0.0 mm 0.00 in0.0 mm
04:25 PM 51.8°F11.0°C 47.1°F8.4°C 84% 4.9 mph SW7.9 kmh SW 10.3 mph16.6 kmh 29.20 in988.8 mb 0.00 in0.0 mm 0.00 in0.0 mm 0.00 in0.0 mm
04:30 PM 51.8°F11.0°C 47.1°F8.4°C 84% 2.5 mph SSW4.0 kmh SSW 9.6 mph15.4 kmh 29.20 in988.8 mb 0.00 in0.0 mm 0.00 in0.0 mm 0.00 in0.0 mm
04:35 PM 51.6°F10.9°C 46.9°F8.3°C 84% Calm Calm 7.8 mph12.6 kmh 29.20 in988.8 mb 0.00 in0.0 mm 0.00 in0.0 mm 0.00 in0.0 mm
04:40 PM 51.6°F10.9°C 46.9°F8.3°C 84% 2.0 mph NW3.2 kmh NW 10.5 mph16.9 kmh 29.20 in988.8 mb 0.00 in0.0 mm 0.00 in0.0 mm 0.00 in0.0 mm
04:45 PM 51.6°F10.9°C 46.9°F8.3°C 84% 8.5 mph NNW13.7 kmh NNW 13.2 mph21.2 kmh 29.20 in988.8 mb 0.00 in0.0 mm 0.00 in0.0 mm 0.00 in0.0 mm
04:50 PM 51.6°F10.9°C 46.9°F8.3°C 84% 2.0 mph N3.2 kmh N 13.2 mph21.2 kmh 29.21 in989.2 mb 0.02 in0.5 mm 0.24 in6.1 mm 0.02 in0.5 mm
04:55 PM 51.6°F10.9°C 46.9°F8.3°C 85% 2.7 mph NNE4.3 kmh NNE 16.6 mph26.7 kmh 29.21 in989.2 mb 0.02 in0.5 mm 0.00 in0.0 mm 0.02 in0.5 mm
05:00 PM 51.6°F10.9°C 47.2°F8.4°C 85% Calm Calm 16.6 mph26.7 kmh 29.20 in988.8 mb 0.02 in0.5 mm 0.00 in0.0 mm 0.02 in0.5 mm
05:05 PM 51.6°F10.9°C 47.2°F8.4°C 85% 1.8 mph N2.9 kmh N 7.4 mph11.9 kmh 29.20 in988.8 mb 0.02 in0.5 mm 0.00 in0.0 mm 0.02 in0.5 mm
05:10 PM 51.6°F10.9°C 47.5°F8.6°C 86% 2.5 mph N4.0 kmh N 9.2 mph14.8 kmh 29.21 in989.2 mb 0.02 in0.5 mm 0.00 in0.0 mm 0.02 in0.5 mm
05:15 PM 51.8°F11.0°C 47.7°F8.7°C 86% 9.6 mph N15.4 kmh N 9.6 mph15.4 kmh 29.20 in988.8 mb 0.02 in0.5 mm 0.00 in0.0 mm 0.02 in0.5 mm
05:20 PM 51.8°F11.0°C 47.7°F8.7°C 86% 2.2 mph N3.5 kmh N 9.8 mph15.8 kmh 29.21 in989.2 mb 0.02 in0.5 mm 0.00 in0.0 mm 0.02 in0.5 mm
05:25 PM 52.0°F11.1°C 47.9°F8.8°C 86% 2.2 mph N3.5 kmh N 10.7 mph17.2 kmh 29.21 in989.2 mb 0.02 in0.5 mm 0.00 in0.0 mm 0.02 in0.5 mm
05:30 PM 52.2°F11.2°C 48.4°F9.1°C 87% 9.4 mph N15.1 kmh N 13.9 mph22.4 kmh 29.21 in989.2 mb 0.02 in0.5 mm 0.00 in0.0 mm 0.02 in0.5 mm
05:35 PM 52.3°F11.3°C 48.2°F9.0°C 86% 7.8 mph N12.6 kmh N 13.9 mph22.4 kmh 29.21 in989.2 mb 0.04 in1.0 mm 0.24 in6.1 mm 0.04 in1.0 mm
05:40 PM 52.3°F11.3°C 48.5°F9.2°C 87% 9.6 mph N15.4 kmh N 14.1 mph22.7 kmh 29.22 in989.5 mb 0.04 in1.0 mm 0.00 in0.0 mm 0.04 in1.0 mm
05:45 PM 52.3°F11.3°C 48.2°F9.0°C 86% 4.0 mph N6.4 kmh N 14.1 mph22.7 kmh 29.22 in989.5 mb 0.04 in1.0 mm 0.00 in0.0 mm 0.04 in1.0 mm
05:50 PM 52.3°F11.3°C 48.5°F9.2°C 87% 4.0 mph NNW6.4 kmh NNW 11.2 mph18.0 kmh 29.22 in989.5 mb 0.02 in0.5 mm 0.00 in0.0 mm 0.04 in1.0 mm
05:55 PM 52.3°F11.3°C 48.5°F9.2°C 87% 4.0 mph NNW6.4 kmh NNW 14.3 mph23.0 kmh 29.22 in989.5 mb 0.04 in1.0 mm 0.24 in6.1 mm 0.06 in1.5 mm
06:00 PM 52.3°F11.3°C 48.5°F9.2°C 87% 2.2 mph NNW3.5 kmh NNW 16.3 mph26.2 kmh 29.22 in989.5 mb 0.04 in1.0 mm 0.00 in0.0 mm 0.06 in1.5 mm
06:05 PM 52.3°F11.3°C 48.5°F9.2°C 87% 4.7 mph NNW7.6 kmh NNW 16.3 mph26.2 kmh 29.22 in989.5 mb 0.04 in1.0 mm 0.00 in0.0 mm 0.06 in1.5 mm
06:10 PM 52.3°F11.3°C 48.5°F9.2°C 87% 3.4 mph N5.5 kmh N 12.1 mph19.5 kmh 29.23 in989.8 mb 0.06 in1.5 mm 0.24 in6.1 mm 0.08 in2.0 mm
06:15 PM 52.2°F11.2°C 48.4°F9.1°C 87% 6.3 mph NE10.1 kmh NE 14.3 mph23.0 kmh 29.23 in989.8 mb 0.06 in1.5 mm 0.00 in0.0 mm 0.08 in2.0 mm
06:20 PM 52.0°F11.1°C 48.5°F9.2°C 88% 2.5 mph NNE4.0 kmh NNE 14.3 mph23.0 kmh 29.24 in990.2 mb 0.08 in2.0 mm 0.24 in6.1 mm 0.10 in2.5 mm
06:25 PM 51.6°F10.9°C 48.1°F8.9°C 88% 2.2 mph NE3.5 kmh NE 12.1 mph19.5 kmh 29.23 in989.8 mb 0.08 in2.0 mm 0.00 in0.0 mm 0.10 in2.5 mm
06:30 PM 51.4°F10.8°C 47.9°F8.8°C 88% 3.6 mph NE5.8 kmh NE 12.3 mph19.8 kmh 29.23 in989.8 mb 0.10 in2.5 mm 0.24 in6.1 mm 0.12 in3.0 mm
06:35 PM 51.4°F10.8°C 47.9°F8.8°C 88% 3.8 mph NE6.1 kmh NE 12.3 mph19.8 kmh 29.24 in990.2 mb 0.08 in2.0 mm 0.00 in0.0 mm 0.12 in3.0 mm
06:40 PM 51.3°F10.7°C 48.1°F8.9°C 89% 9.4 mph NNE15.1 kmh NNE 11.9 mph19.2 kmh 29.24 in990.2 mb 0.10 in2.5 mm 0.24 in6.1 mm 0.14 in3.6 mm
06:45 PM 51.1°F10.6°C 47.6°F8.7°C 88% 6.5 mph N10.5 kmh N 12.1 mph19.5 kmh 29.24 in990.2 mb 0.10 in2.5 mm 0.00 in0.0 mm 0.14 in3.6 mm
06:50 PM 51.1°F10.6°C 47.6°F8.7°C 88% 2.5 mph N4.0 kmh N 12.1 mph19.5 kmh 29.24 in990.2 mb 0.12 in3.0 mm 0.24 in6.1 mm 0.16 in4.1 mm
06:55 PM 51.1°F10.6°C 47.6°F8.7°C 88% 4.0 mph N6.4 kmh N 13.2 mph21.2 kmh 29.25 in990.5 mb 0.10 in2.5 mm 0.00 in0.0 mm 0.16 in4.1 mm
07:00 PM 51.1°F10.6°C 47.6°F8.7°C 88% 2.0 mph NNW3.2 kmh NNW 13.2 mph21.2 kmh 29.24 in990.2 mb 0.10 in2.5 mm 0.00 in0.0 mm 0.16 in4.1 mm
07:05 PM 51.3°F10.7°C 47.8°F8.8°C 88% 5.1 mph NNW8.2 kmh NNW 11.0 mph17.7 kmh 29.25 in990.5 mb 0.10 in2.5 mm 0.00 in0.0 mm 0.16 in4.1 mm
07:10 PM 51.4°F10.8°C 47.9°F8.8°C 88% 6.7 mph N10.8 kmh N 10.7 mph17.2 kmh 29.25 in990.5 mb 0.10 in2.5 mm 0.00 in0.0 mm 0.18 in4.6 mm
07:15 PM 51.4°F10.8°C 47.6°F8.7°C 87% 10.3 mph NNW16.6 kmh NNW 11.9 mph19.2 kmh 29.25 in990.5 mb 0.10 in2.5 mm 0.00 in0.0 mm 0.18 in4.6 mm
07:20 PM 51.4°F10.8°C 47.9°F8.8°C 88% 2.2 mph NNW3.5 kmh NNW 13.2 mph21.2 kmh 29.25 in990.5 mb 0.08 in2.0 mm 0.00 in0.0 mm 0.18 in4.6 mm
07:25 PM 51.4°F10.8°C 47.6°F8.7°C 87% 10.1 mph N16.3 kmh N 13.2 mph21.2 kmh 29.25 in990.5 mb 0.08 in2.0 mm 0.00 in0.0 mm 0.20 in5.1 mm
07:30 PM 51.4°F10.8°C 47.9°F8.8°C 88% 7.4 mph N11.9 kmh N 10.7 mph17.2 kmh 29.25 in990.5 mb 0.08 in2.0 mm 0.00 in0.0 mm 0.20 in5.1 mm
07:35 PM 51.3°F10.7°C 47.8°F8.8°C 88% Calm Calm 10.7 mph17.2 kmh 29.25 in990.5 mb 0.06 in1.5 mm 0.00 in0.0 mm 0.20 in5.1 mm
07:40 PM 51.3°F10.7°C 47.8°F8.8°C 88% 2.7 mph N4.3 kmh N 10.7 mph17.2 kmh 29.25 in990.5 mb 0.06 in1.5 mm 0.00 in0.0 mm 0.20 in5.1 mm
07:45 PM 51.3°F10.7°C 47.8°F8.8°C 88% 4.3 mph N6.9 kmh N 9.8 mph15.8 kmh 29.25 in990.5 mb 0.08 in2.0 mm 0.24 in6.1 mm 0.22 in5.6 mm
07:50 PM 51.3°F10.7°C 47.8°F8.8°C 88% 3.1 mph NNE5.0 kmh NNE 11.0 mph17.7 kmh 29.25 in990.5 mb 0.06 in1.5 mm 0.00 in0.0 mm 0.22 in5.6 mm
07:55 PM 51.3°F10.7°C 47.8°F8.8°C 88% Calm Calm 11.0 mph17.7 kmh 29.25 in990.5 mb 0.06 in1.5 mm 0.00 in0.0 mm 0.22 in5.6 mm
08:00 PM 51.3°F10.7°C 47.8°F8.8°C 88% 1.3 mph N2.1 kmh N 17.4 mph28.0 kmh 29.26 in990.9 mb 0.06 in1.5 mm 0.00 in0.0 mm 0.22 in5.6 mm
08:05 PM 51.3°F10.7°C 47.8°F8.8°C 88% 2.5 mph NW4.0 kmh NW 17.4 mph28.0 kmh 29.25 in990.5 mb 0.06 in1.5 mm 0.00 in0.0 mm 0.22 in5.6 mm
08:10 PM 51.4°F10.8°C 47.9°F8.8°C 88% 5.8 mph NW9.3 kmh NW 12.3 mph19.8 kmh 29.25 in990.5 mb 0.06 in1.5 mm 0.00 in0.0 mm 0.24 in6.1 mm
08:15 PM 51.4°F10.8°C 47.9°F8.8°C 88% 1.8 mph N2.9 kmh N 11.2 mph18.0 kmh 29.26 in990.9 mb 0.06 in1.5 mm 0.00 in0.0 mm 0.24 in6.1 mm
08:20 PM 51.4°F10.8°C 47.9°F8.8°C 88% 2.2 mph NNW3.5 kmh NNW 11.2 mph18.0 kmh 29.26 in990.9 mb 0.06 in1.5 mm 0.00 in0.0 mm 0.24 in6.1 mm
08:25 PM 51.4°F10.8°C 47.9°F8.8°C 88% Calm Calm 10.5 mph16.9 kmh 29.26 in990.9 mb 0.06 in1.5 mm 0.00 in0.0 mm 0.27 in6.9 mm
08:30 PM 51.3°F10.7°C 47.8°F8.8°C 88% 5.1 mph N8.2 kmh N 17.2 mph27.7 kmh 29.27 in991.2 mb 0.08 in2.0 mm 0.24 in6.1 mm 0.29 in7.4 mm
08:35 PM 51.1°F10.6°C 47.6°F8.7°C 88% 4.0 mph N6.4 kmh N 17.2 mph27.7 kmh 29.27 in991.2 mb 0.10 in2.5 mm 0.24 in6.1 mm 0.31 in7.9 mm
08:40 PM 51.1°F10.6°C 47.6°F8.7°C 88% 6.5 mph NNE10.5 kmh NNE 12.1 mph19.5 kmh 29.27 in991.2 mb 0.10 in2.5 mm 0.00 in0.0 mm 0.31 in7.9 mm
08:45 PM 50.9°F10.5°C 47.4°F8.6°C 88% 7.2 mph N11.6 kmh N 15.9 mph25.6 kmh 29.28 in991.5 mb 0.10 in2.5 mm 0.00 in0.0 mm 0.33 in8.4 mm
08:50 PM 50.7°F10.4°C 47.2°F8.4°C 88% 4.7 mph N7.6 kmh N 15.9 mph25.6 kmh 29.28 in991.5 mb 0.10 in2.5 mm 0.00 in0.0 mm 0.33 in8.4 mm
08:55 PM 50.7°F10.4°C 46.9°F8.3°C 87% 4.5 mph N7.2 kmh N 15.0 mph24.1 kmh 29.28 in991.5 mb 0.10 in2.5 mm 0.00 in0.0 mm 0.33 in8.4 mm
09:00 PM 50.7°F10.4°C 46.9°F8.3°C 87% 4.3 mph N6.9 kmh N 18.6 mph29.9 kmh 29.28 in991.5 mb 0.10 in2.5 mm 0.00 in0.0 mm 0.33 in8.4 mm
09:05 PM 50.5°F10.3°C 46.7°F8.2°C 87% 3.1 mph NNE5.0 kmh NNE 18.6 mph29.9 kmh 29.28 in991.5 mb 0.10 in2.5 mm 0.00 in0.0 mm 0.33 in8.4 mm
09:10 PM 50.4°F10.2°C 46.6°F8.1°C 87% 7.6 mph NNE12.2 kmh NNE 15.2 mph24.5 kmh 29.28 in991.5 mb 0.08 in2.0 mm 0.00 in0.0 mm 0.33 in8.4 mm
09:15 PM 50.5°F10.3°C 46.7°F8.2°C 87% 3.4 mph NNE5.5 kmh NNE 16.3 mph26.2 kmh 29.29 in991.9 mb 0.08 in2.0 mm 0.00 in0.0 mm 0.33 in8.4 mm
09:20 PM 50.4°F10.2°C 46.3°F7.9°C 86% 8.7 mph N14.0 kmh N 16.3 mph26.2 kmh 29.29 in991.9 mb 0.08 in2.0 mm 0.00 in0.0 mm 0.33 in8.4 mm
09:25 PM 50.4°F10.2°C 46.3°F7.9°C 86% 6.7 mph N10.8 kmh N 28.0 mph45.1 kmh 29.29 in991.9 mb 0.06 in1.5 mm 0.00 in0.0 mm 0.35 in8.9 mm
09:30 PM 50.2°F10.1°C 46.4°F8.0°C 87% 5.4 mph N8.7 kmh N 28.0 mph45.1 kmh 29.29 in991.9 mb 0.06 in1.5 mm 0.00 in0.0 mm 0.35 in8.9 mm
09:35 PM 50.2°F10.1°C 46.4°F8.0°C 87% 4.7 mph NNE7.6 kmh NNE 14.8 mph23.8 kmh 29.29 in991.9 mb 0.04 in1.0 mm 0.00 in0.0 mm 0.35 in8.9 mm
09:40 PM 49.8°F9.9°C 46.3°F7.9°C 88% 1.8 mph NNE2.9 kmh NNE 14.1 mph22.7 kmh 29.29 in991.9 mb 0.04 in1.0 mm 0.00 in0.0 mm 0.35 in8.9 mm
09:45 PM 49.8°F9.9°C 46.3°F7.9°C 88% 3.6 mph NE5.8 kmh NE 15.4 mph24.8 kmh 29.29 in991.9 mb 0.02 in0.5 mm 0.00 in0.0 mm 0.35 in8.9 mm
09:50 PM 49.8°F9.9°C 46.3°F7.9°C 88% 2.9 mph NE4.7 kmh NE 15.4 mph24.8 kmh 29.29 in991.9 mb 0.02 in0.5 mm 0.00 in0.0 mm 0.35 in8.9 mm
09:55 PM 49.8°F9.9°C 46.3°F7.9°C 88% 5.1 mph NE8.2 kmh NE 16.1 mph25.9 kmh 29.29 in991.9 mb 0.02 in0.5 mm 0.00 in0.0 mm 0.35 in8.9 mm
10:00 PM 49.6°F9.8°C 45.9°F7.7°C 87% 5.6 mph ENE9.0 kmh ENE 16.1 mph25.9 kmh 29.29 in991.9 mb 0.02 in0.5 mm 0.00 in0.0 mm 0.35 in8.9 mm
10:05 PM 49.6°F9.8°C 45.9°F7.7°C 87% 9.8 mph ENE15.8 kmh ENE 15.7 mph25.3 kmh 29.30 in992.2 mb 0.02 in0.5 mm 0.00 in0.0 mm 0.35 in8.9 mm
10:10 PM 49.6°F9.8°C 45.9°F7.7°C 87% 6.9 mph ENE11.1 kmh ENE 15.0 mph24.1 kmh 29.30 in992.2 mb 0.02 in0.5 mm 0.00 in0.0 mm 0.35 in8.9 mm
10:15 PM 49.6°F9.8°C 45.9°F7.7°C 87% 5.4 mph NE8.7 kmh NE 19.5 mph31.4 kmh 29.29 in991.9 mb 0.02 in0.5 mm 0.00 in0.0 mm 0.35 in8.9 mm
10:20 PM 49.6°F9.8°C 45.9°F7.7°C 87% 6.9 mph NE11.1 kmh NE 19.5 mph31.4 kmh 29.29 in991.9 mb 0.02 in0.5 mm 0.00 in0.0 mm 0.35 in8.9 mm
10:25 PM 49.5°F9.7°C 45.4°F7.4°C 86% 6.0 mph NE9.7 kmh NE 17.0 mph27.4 kmh 29.30 in992.2 mb 0.00 in0.0 mm 0.00 in0.0 mm 0.35 in8.9 mm
10:30 PM 49.3°F9.6°C 45.2°F7.3°C 86% 4.7 mph NE7.6 kmh NE 15.0 mph24.1 kmh 29.30 in992.2 mb 0.00 in0.0 mm 0.00 in0.0 mm 0.35 in8.9 mm
10:35 PM 49.3°F9.6°C 45.2°F7.3°C 86% 2.5 mph NE4.0 kmh NE 15.0 mph24.1 kmh 29.30 in992.2 mb 0.00 in0.0 mm 0.00 in0.0 mm 0.35 in8.9 mm
10:40 PM 49.3°F9.6°C 45.2°F7.3°C 86% 10.5 mph ENE16.9 kmh ENE 16.6 mph26.7 kmh 29.30 in992.2 mb 0.00 in0.0 mm 0.00 in0.0 mm 0.35 in8.9 mm
10:45 PM 49.3°F9.6°C 45.2°F7.3°C 86% 7.4 mph NE11.9 kmh NE 17.2 mph27.7 kmh 29.30 in992.2 mb 0.00 in0.0 mm 0.00 in0.0 mm 0.35 in8.9 mm
10:50 PM 49.1°F9.5°C 45.0°F7.2°C 86% 3.8 mph ENE6.1 kmh ENE 17.2 mph27.7 kmh 29.30 in992.2 mb 0.00 in0.0 mm 0.00 in0.0 mm 0.35 in8.9 mm
10:55 PM 48.9°F9.4°C 44.9°F7.2°C 86% 2.9 mph E4.7 kmh E 9.2 mph14.8 kmh 29.30 in992.2 mb 0.00 in0.0 mm 0.00 in0.0 mm 0.35 in8.9 mm
11:00 PM 48.9°F9.4°C 44.6°F7.0°C 85% 1.6 mph SE2.6 kmh SE 8.1 mph13.0 kmh 29.30 in992.2 mb 0.00 in0.0 mm 0.00 in0.0 mm 0.35 in8.9 mm
11:05 PM 48.9°F9.4°C 44.6°F7.0°C 85% 1.8 mph SE2.9 kmh SE 11.4 mph18.3 kmh 29.30 in992.2 mb 0.00 in0.0 mm 0.00 in0.0 mm 0.35 in8.9 mm
11:10 PM 48.9°F9.4°C 44.2°F6.8°C 84% 5.8 mph ESE9.3 kmh ESE 11.4 mph18.3 kmh 29.30 in992.2 mb 0.00 in0.0 mm 0.00 in0.0 mm 0.35 in8.9 mm
11:15 PM 49.1°F9.5°C 44.4°F6.9°C 84% 1.6 mph ESE2.6 kmh ESE 8.9 mph14.3 kmh 29.30 in992.2 mb 0.00 in0.0 mm 0.00 in0.0 mm 0.35 in8.9 mm
11:20 PM 49.1°F9.5°C 44.4°F6.9°C 84% 2.9 mph SE4.7 kmh SE 8.3 mph13.4 kmh 29.30 in992.2 mb 0.00 in0.0 mm 0.00 in0.0 mm 0.35 in8.9 mm
11:25 PM 49.1°F9.5°C 44.4°F6.9°C 84% 1.6 mph SE2.6 kmh SE 6.9 mph11.1 kmh 29.30 in992.2 mb 0.00 in0.0 mm 0.00 in0.0 mm 0.35 in8.9 mm
11:30 PM 49.1°F9.5°C 44.1°F6.7°C 83% 2.9 mph E4.7 kmh E 13.6 mph21.9 kmh 29.29 in991.9 mb 0.00 in0.0 mm 0.00 in0.0 mm 0.35 in8.9 mm
11:35 PM 49.3°F9.6°C 44.3°F6.8°C 83% 1.1 mph E1.8 kmh E 13.6 mph21.9 kmh 29.30 in992.2 mb 0.00 in0.0 mm 0.00 in0.0 mm 0.35 in8.9 mm
11:40 PM 49.3°F9.6°C 44.3°F6.8°C 83% Calm Calm 7.8 mph12.6 kmh 29.29 in991.9 mb 0.00 in0.0 mm 0.00 in0.0 mm 0.35 in8.9 mm
11:45 PM 49.3°F9.6°C 44.3°F6.8°C 83% 2.0 mph E3.2 kmh E 7.8 mph12.6 kmh 29.30 in992.2 mb 0.00 in0.0 mm 0.00 in0.0 mm 0.35 in8.9 mm
11:50 PM 49.1°F9.5°C 43.8°F6.6°C 82% 4.3 mph ESE6.9 kmh ESE 10.7 mph17.2 kmh 29.29 in991.9 mb 0.00 in0.0 mm 0.00 in0.0 mm 0.35 in8.9 mm
11:55 PM 49.1°F9.5°C 43.8°F6.6°C 82% 4.7 mph ESE7.6 kmh ESE 10.7 mph17.2 kmh 29.29 in991.9 mb 0.00 in0.0 mm 0.00 in0.0 mm 0.35 in8.9 mm